createdAt,value
2018-12-24T10:47:55.101Z,11.66
2018-12-24T10:50:23.476Z,11.50
2018-12-24T10:52:51.862Z,11.37
2018-12-24T10:55:20.280Z,12.00
2018-12-24T10:57:48.638Z,11.25
2018-12-24T11:00:17.092Z,11.68
2018-12-24T11:02:45.470Z,11.94
2018-12-24T11:05:13.858Z,12.10
2018-12-24T11:07:42.270Z,11.80
2018-12-24T13:55:58.108Z,11.91
2018-12-24T13:58:26.507Z,11.58
2018-12-24T14:00:54.925Z,11.64
2018-12-24T15:17:38.900Z,10.25
2018-12-24T15:26:58.267Z,10.62
2018-12-24T15:29:26.664Z,11.08
2018-12-24T15:31:55.062Z,10.55
2018-12-24T15:34:23.443Z,10.38
2018-12-24T15:36:51.802Z,10.49
2018-12-24T15:39:20.188Z,10.15
2018-12-24T15:41:48.569Z,10.35
2018-12-24T15:44:16.931Z,10.39
2018-12-24T15:46:45.291Z,11.83
2018-12-24T15:49:13.689Z,11.32
2018-12-24T15:51:42.059Z,10.23
2018-12-24T15:54:10.445Z,10.02
2018-12-24T15:56:38.816Z,12.10
2018-12-24T15:59:07.169Z,9.57
2018-12-24T16:01:35.562Z,9.40
2018-12-24T16:04:03.960Z,9.46
2018-12-24T16:06:32.326Z,9.83
2018-12-24T16:09:00.679Z,9.38
2018-12-24T16:11:29.051Z,9.84
2018-12-24T16:13:57.415Z,9.67
2018-12-24T16:16:25.792Z,9.60
2018-12-24T16:18:54.203Z,9.19
2018-12-24T16:21:22.577Z,9.75
2018-12-24T16:23:50.957Z,10.09
2018-12-24T16:26:19.332Z,9.75
2018-12-24T16:28:47.692Z,9.59
2018-12-24T16:31:16.089Z,9.92
2018-12-24T16:33:44.476Z,9.82
2018-12-24T16:36:13.839Z,9.70
2018-12-24T16:57:30.456Z,8.85
2018-12-24T16:59:58.909Z,9.32
2018-12-24T17:02:27.319Z,8.85
2018-12-24T17:04:55.709Z,9.01
2018-12-24T17:07:24.088Z,9.06
2018-12-24T17:09:52.453Z,9.33
2018-12-24T17:12:20.864Z,9.17
2018-12-24T17:14:49.263Z,8.86
2018-12-24T17:17:17.636Z,9.06
2018-12-24T17:19:46.001Z,8.93
2018-12-24T17:22:14.358Z,9.11
2018-12-24T17:24:42.740Z,8.84
2018-12-24T17:27:11.120Z,8.88
2018-12-24T17:29:39.498Z,8.75
2018-12-24T17:32:07.872Z,8.56
2018-12-24T17:34:36.246Z,8.66
2018-12-24T17:37:04.617Z,8.68
2018-12-24T17:39:33.004Z,10.11
2018-12-24T17:42:01.365Z,8.54
2018-12-24T17:44:29.744Z,8.30
2018-12-24T17:46:58.124Z,8.17
2018-12-24T17:49:26.538Z,7.95
2018-12-24T17:51:54.950Z,8.32
2018-12-24T17:54:23.332Z,8.85
2018-12-24T17:56:51.715Z,9.09
2018-12-24T17:59:20.071Z,9.28
2018-12-24T18:01:48.613Z,8.77
2018-12-24T18:04:17.002Z,9.23
2018-12-24T18:06:45.388Z,9.41
2018-12-24T18:09:13.752Z,9.07
2018-12-24T18:11:42.117Z,9.19
2018-12-24T18:14:10.510Z,9.18
2018-12-24T18:16:38.881Z,9.01
2018-12-24T18:19:07.260Z,9.15
2018-12-24T18:21:35.638Z,9.18
2018-12-24T18:24:04.011Z,9.35
2018-12-24T18:26:32.403Z,8.98
2018-12-24T18:29:00.784Z,8.97
2018-12-24T18:31:29.146Z,9.19
2018-12-24T18:33:57.531Z,8.66
2018-12-24T18:36:25.985Z,8.73
2018-12-24T18:38:54.354Z,8.92
2018-12-24T18:41:22.716Z,8.63
2018-12-24T18:43:51.072Z,8.41
2018-12-24T18:46:19.459Z,8.86
2018-12-24T18:48:47.827Z,8.47
2018-12-24T18:51:16.238Z,8.49
2018-12-24T18:53:44.605Z,8.92
2018-12-24T18:56:12.977Z,9.01
2018-12-24T18:58:41.362Z,9.50
2018-12-24T19:01:09.748Z,9.03
2018-12-24T19:03:38.168Z,8.57
2018-12-24T19:06:06.546Z,8.44
2018-12-24T19:08:34.911Z,8.75
2018-12-24T19:11:03.294Z,8.92
2018-12-24T19:13:31.681Z,8.89
2018-12-24T19:16:00.076Z,8.70
2018-12-24T19:18:28.458Z,8.81
2018-12-24T19:20:56.872Z,8.49
2018-12-24T19:23:25.230Z,8.60
2018-12-24T19:25:53.623Z,8.23
2018-12-24T19:28:22.002Z,8.41
2018-12-24T19:30:50.361Z,8.44
2018-12-24T19:33:18.743Z,8.46
2018-12-24T19:35:47.111Z,8.15
2018-12-24T19:38:15.476Z,8.26
2018-12-24T19:40:43.858Z,8.42
2018-12-24T19:43:12.239Z,8.40
2018-12-24T19:45:40.614Z,8.41
2018-12-24T19:48:09.013Z,8.36
2018-12-24T19:50:37.393Z,8.16
2018-12-24T19:53:05.770Z,8.58
2018-12-24T19:55:34.154Z,7.96
2018-12-24T19:58:02.517Z,8.21
2018-12-24T20:00:30.924Z,8.27
2018-12-24T20:02:59.312Z,8.17
2018-12-24T20:05:27.696Z,7.99
2018-12-24T20:07:56.066Z,7.87
2018-12-24T20:10:24.440Z,8.15
2018-12-24T20:12:52.874Z,8.01
2018-12-24T20:15:21.235Z,8.24
2018-12-24T20:17:49.599Z,8.37
2018-12-24T20:20:18.006Z,8.10
2018-12-24T20:22:46.428Z,9.32
2018-12-24T20:25:14.830Z,9.64
2018-12-24T20:27:43.195Z,8.43
2018-12-24T20:30:11.602Z,8.70
2018-12-24T20:32:40.006Z,10.07
2018-12-24T20:35:08.378Z,9.01
2018-12-24T20:37:36.775Z,8.57
2018-12-24T20:40:05.212Z,8.44
2018-12-24T20:42:33.598Z,9.26
2018-12-24T20:45:02.047Z,8.49
2018-12-24T20:47:30.421Z,10.32
2018-12-24T20:49:58.790Z,9.23
2018-12-24T20:52:27.176Z,8.35
2018-12-24T20:54:55.573Z,8.61
2018-12-24T20:57:23.957Z,8.41
2018-12-24T20:59:52.377Z,8.12
2018-12-24T21:02:20.807Z,7.69
2018-12-24T21:04:49.264Z,8.69
2018-12-24T21:07:17.641Z,8.15
2018-12-24T21:09:46.062Z,8.04
2018-12-24T21:12:14.414Z,7.98
2018-12-24T21:14:42.967Z,7.84
2018-12-24T21:17:11.361Z,8.04
2018-12-24T21:19:39.717Z,8.71
2018-12-24T21:22:08.168Z,8.23
2018-12-24T21:24:36.486Z,7.97
2018-12-24T21:27:04.874Z,8.15
2018-12-24T21:29:33.247Z,7.98
2018-12-24T21:32:01.624Z,7.95
2018-12-24T21:34:30.014Z,7.87
2018-12-24T21:36:58.473Z,7.17
2018-12-24T21:39:26.877Z,7.34
2018-12-24T21:41:55.321Z,8.16
2018-12-24T21:44:23.710Z,7.62
2018-12-24T21:46:52.075Z,7.73
2018-12-24T21:49:20.547Z,8.03
2018-12-24T21:51:48.944Z,7.97
2018-12-24T21:54:17.332Z,7.82
2018-12-24T21:56:45.717Z,7.94
2018-12-24T21:59:14.139Z,7.81
2018-12-24T22:01:42.541Z,7.54
2018-12-24T22:04:10.921Z,7.36
2018-12-24T22:06:39.279Z,7.63
2018-12-24T22:09:07.726Z,7.71
2018-12-24T22:11:36.249Z,7.61
2018-12-24T22:14:04.596Z,7.52
2018-12-24T22:16:33.017Z,7.77
2018-12-24T22:19:01.370Z,7.77
2018-12-24T22:21:29.739Z,7.34
2018-12-24T22:23:58.158Z,7.90
2018-12-24T22:26:26.566Z,7.65
2018-12-24T22:28:54.934Z,7.24
2018-12-24T22:31:23.285Z,7.21
2018-12-24T22:33:51.667Z,7.61
2018-12-24T22:36:20.061Z,6.33
2018-12-24T22:38:48.463Z,6.55
2018-12-24T22:41:16.871Z,7.04
2018-12-24T22:43:45.263Z,6.77
2018-12-24T22:46:13.660Z,8.03
2018-12-24T22:48:42.075Z,8.66
2018-12-24T22:51:10.470Z,6.89
2018-12-24T22:53:38.863Z,6.87
2018-12-24T22:56:07.258Z,7.23
2018-12-24T22:58:35.662Z,6.92
2018-12-24T23:01:04.046Z,6.73
2018-12-24T23:03:32.420Z,6.97
2018-12-24T23:06:00.776Z,7.11
2018-12-24T23:08:29.150Z,7.00
2018-12-24T23:10:57.524Z,6.69
2018-12-24T23:13:25.922Z,6.11
2018-12-24T23:15:54.276Z,6.42
2018-12-24T23:18:22.634Z,6.60
2018-12-24T23:20:51.015Z,6.39
2018-12-24T23:23:19.368Z,6.66
2018-12-24T23:25:47.750Z,6.64
2018-12-24T23:28:16.131Z,6.67
2018-12-24T23:30:44.528Z,6.58
2018-12-24T23:33:12.895Z,6.68
2018-12-24T23:35:41.273Z,6.54
2018-12-24T23:38:09.628Z,6.55
2018-12-24T23:40:38.014Z,6.90
2018-12-24T23:43:06.404Z,6.69
2018-12-24T23:45:34.774Z,6.78
2018-12-24T23:48:03.192Z,6.47
2018-12-24T23:50:31.570Z,6.71
2018-12-24T23:52:59.978Z,7.61
